Time;durP1;ratioP1;P1;durP2;ratioP2;P2;SDS_P1;SDS_P2;PMS_P1;PMS_P2;Temp;Humidity;BMP_temperature;BMP_pressure;BME280_temperature;BME280_humidity;BME280_pressure;Samples;Min_cycle;Max_cycle;Signal;HPM_P1;HPM_P2
2022/02/10 00:20:58;;;;;;;18.10;9.50;;;;;;;-2.67;100.00;97500.97;4994955;28;20192;-65
2022/02/10 00:34:10;;;;;;;15.07;9.27;;;;;;;-2.98;100.00;97498.94;5003490;28;20038;-66
2022/02/10 00:34:29;;;;;;;17.00;10.02;;;;;;;-2.73;100.00;97494.78;4995980;28;20041;-68
2022/02/10 00:39:50;;;;;;;20.70;10.55;;;;;;;-2.44;100.00;97497.06;5002624;28;20112;-65
2022/02/10 00:42:15;;;;;;;18.20;9.30;;;;;;;-2.36;100.00;97492.00;5009167;28;20085;-67
2022/02/10 00:44:41;;;;;;;17.85;9.23;;;;;;;-2.41;100.00;97493.81;5001606;28;20047;-67
2022/02/10 00:47:06;;;;;;;16.75;9.18;;;;;;;-2.43;100.00;97495.97;4987061;28;20483;-66
2022/02/10 00:49:32;;;;;;;15.38;8.75;;;;;;;-2.60;100.00;97498.88;5003971;28;20065;-68
2022/02/10 00:51:57;;;;;;;17.25;9.43;;;;;;;-2.76;100.00;97493.41;4998971;28;20057;-66
2022/02/10 00:54:25;;;;;;;20.70;10.18;;;;;;;-2.69;100.00;97490.50;4980547;28;20550;-67
2022/02/10 00:56:52;;;;;;;22.00;10.98;;;;;;;-2.70;100.00;97486.22;4990082;28;20049;-68
2022/02/10 01:31:51;;;;;;;21.00;10.27;;;;;;;-2.83;100.00;97479.44;4997516;28;20073;-66
2022/02/10 01:34:16;;;;;;;20.73;10.27;;;;;;;-2.85;100.00;97478.91;4991599;28;20066;-67
2022/02/10 01:36:41;;;;;;;26.65;10.55;;;;;;;-2.79;100.00;97477.88;4997830;28;20043;-64
2022/02/10 01:39:07;;;;;;;23.05;10.88;;;;;;;-2.86;100.00;97473.78;4984736;28;20057;-67
2022/02/10 01:58:24;;;;;;;22.38;10.45;;;;;;;-3.68;100.00;97466.84;4988389;28;20117;-66
2022/02/10 02:03:33;;;;;;;21.40;11.15;;;;;;;-3.76;100.00;97466.50;4997475;28;20443;-65
2022/02/10 02:06:03;;;;;;;27.63;12.35;;;;;;;-3.78;100.00;97455.25;5000226;28;20073;-65
2022/02/10 02:08:32;;;;;;;22.08;11.35;;;;;;;-3.85;100.00;97461.63;4988694;28;20104;-69
2022/02/10 02:10:59;;;;;;;20.80;11.07;;;;;;;-3.87;100.00;97458.41;5015762;28;20046;-65
2022/02/10 02:13:25;;;;;;;21.67;11.07;;;;;;;-3.82;100.00;97454.16;4989312;28;20066;-65
2022/02/10 02:15:51;;;;;;;23.52;11.27;;;;;;;-3.85;100.00;97447.44;5000594;28;20713;-66
2022/02/10 02:18:17;;;;;;;18.30;10.73;;;;;;;-3.86;100.00;97451.97;4984734;28;20085;-68
2022/02/10 02:20:46;;;;;;;19.90;10.75;;;;;;;-3.72;100.00;97448.88;4985240;28;20155;-67
2022/02/10 02:23:11;;;;;;;22.15;12.00;;;;;;;-3.45;100.00;97435.44;4974756;28;20042;-67
2022/02/10 02:25:37;;;;;;;21.58;11.98;;;;;;;-3.59;100.00;97434.25;4991024;28;20112;-66
2022/02/10 02:28:06;;;;;;;21.38;10.88;;;;;;;-3.58;100.00;97430.50;4978609;28;20407;-70
2022/02/10 03:06:20;;;;;;;20.73;11.02;;;;;;;-3.18;100.00;97427.28;4979267;28;20570;-67
2022/02/10 03:08:52;;;;;;;19.55;10.18;;;;;;;-3.20;100.00;97429.41;4982485;28;20057;-67
2022/02/10 03:11:18;;;;;;;19.17;10.88;;;;;;;-3.35;100.00;97430.13;4985363;28;20053;-66
2022/02/10 03:13:59;;;;;;;22.08;10.27;;;;;;;-3.76;100.00;97432.53;4981312;28;20038;-66
2022/02/10 03:19:18;;;;;;;22.30;11.13;;;;;;;-3.97;100.00;97436.09;4979011;28;20038;-69
2022/02/10 04:00:38;;;;;;;17.27;10.70;;;;;;;-3.76;100.00;97440.56;4992430;28;20108;-64
2022/02/10 04:08:12;;;;;;;16.75;9.60;;;;;;;-3.56;100.00;97439.09;4995649;28;20499;-67
2022/02/10 04:21:20;;;;;;;15.55;9.57;;;;;;;-3.42;100.00;97439.44;4993716;28;20128;-67
2022/02/10 04:29:29;;;;;;;22.48;10.23;;;;;;;-3.78;100.00;97442.69;4991538;28;20129;-69
2022/02/10 05:04:28;;;;;;;24.83;11.68;;;;;;;-4.03;100.00;97454.78;4977542;28;20492;-67
2022/02/10 05:20:12;;;;;;;20.98;10.77;;;;;;;-4.47;100.00;97454.06;4991180;28;21065;-67
2022/02/10 05:22:35;;;;;;;27.30;11.45;;;;;;;-4.62;100.00;97460.06;4987654;28;20054;-66
2022/02/10 05:33:20;;;;;;;21.80;11.27;;;;;;;-4.22;100.00;97465.03;4994996;28;20041;-68
2022/02/10 05:35:53;;;;;;;23.92;11.77;;;;;;;-4.15;100.00;97462.16;4979448;28;20381;-66
2022/02/10 05:38:27;;;;;;;22.38;11.65;;;;;;;-4.19;100.00;97466.41;4981330;28;20093;-67
2022/02/10 05:41:46;;;;;;;27.13;11.88;;;;;;;-4.30;100.00;97460.16;4981411;28;20054;-67
2022/02/10 05:44:05;;;;;;;24.20;11.45;;;;;;;-4.33;100.00;97463.31;4994509;28;20149;-67
2022/02/10 07:08:42;;;;;;;31.25;16.63;;;;;;;-3.56;100.00;97453.28;4986332;28;20065;-66
2022/02/10 07:17:05;;;;;;;21.50;11.10;;;;;;;-3.49;100.00;97445.84;4979455;28;20857;-67
2022/02/10 07:50:04;;;;;;;18.85;9.95;;;;;;;4.27;73.80;97447.63;4977163;28;20049;-68
2022/02/10 08:00:59;;;;;;;15.35;8.98;;;;;;;2.94;86.65;97438.47;4998170;28;20041;-68
2022/02/10 08:50:15;;;;;;;159.63;62.33;;;;;;;11.04;53.77;97442.03;4994891;28;20098;-68
2022/02/10 08:53:53;;;;;;;79.93;32.92;;;;;;;11.37;51.13;97440.13;4991695;28;20048;-67
2022/02/10 10:02:26;;;;;;;7.97;4.88;;;;;;;13.84;42.25;97414.06;4978726;28;20505;-66
2022/02/10 10:04:59;;;;;;;13.60;4.93;;;;;;;14.94;40.38;97410.38;4983320;28;20045;-65
2022/02/10 10:07:49;;;;;;;21.98;6.32;;;;;;;14.92;39.73;97415.47;4983718;28;20108;-65
2022/02/10 10:49:44;;;;;;;17.50;4.72;;;;;;;13.80;42.15;97379.41;5001919;28;20288;-67
2022/02/10 10:56:51;;;;;;;8.35;3.65;;;;;;;13.15;44.26;97364.59;4998490;28;20038;-67
2022/02/10 12:38:35;;;;;;;20.85;4.85;;;;;;;12.38;47.55;97250.97;4994782;28;20034;-64
2022/02/10 12:43:30;;;;;;;11.23;3.60;;;;;;;12.45;47.12;97242.06;5001236;28;20205;-64
2022/02/10 14:09:15;;;;;;;9.75;3.90;;;;;;;12.36;50.78;97177.16;4987263;28;20038;-66
2022/02/10 14:17:02;;;;;;;6.75;3.20;;;;;;;12.17;51.00;97172.53;4981182;28;20526;-65
2022/02/10 14:19:41;;;;;;;7.15;3.92;;;;;;;12.25;50.87;97170.69;4996825;28;20227;-64
2022/02/10 14:27:20;;;;;;;10.77;5.05;;;;;;;12.05;50.48;97169.97;5001878;28;20470;-64
2022/02/10 14:29:46;;;;;;;10.40;4.07;;;;;;;12.16;50.99;97172.91;5003283;28;21388;-64
2022/02/10 14:32:14;;;;;;;8.02;3.67;;;;;;;12.17;50.83;97166.22;4984771;28;20485;-64
2022/02/10 14:34:40;;;;;;;14.35;3.95;;;;;;;12.31;50.59;97165.69;5001723;28;20045;-66
2022/02/10 14:40:35;;;;;;;14.55;4.05;;;;;;;12.31;50.38;97165.69;4996315;28;20038;-64
2022/02/10 14:43:02;;;;;;;8.00;3.60;;;;;;;12.09;50.77;97175.50;4975425;28;20042;-64
2022/02/10 15:51:39;;;;;;;9.63;4.25;;;;;;;10.57;60.61;97168.00;4994541;28;20116;-64
2022/02/10 16:18:09;;;;;;;11.13;4.47;;;;;;;9.16;70.24;97172.50;4968761;28;20061;-66
2022/02/10 16:20:35;;;;;;;12.45;5.25;;;;;;;9.06;70.49;97174.94;4968725;28;20121;-64
2022/02/10 16:23:04;;;;;;;14.95;4.43;;;;;;;8.93;71.94;97168.66;4990081;28;20046;-66
2022/02/10 16:25:37;;;;;;;9.70;4.70;;;;;;;8.79;72.54;97169.84;4976511;28;20042;-68
2022/02/10 16:28:09;;;;;;;12.88;4.60;;;;;;;8.68;73.64;97173.34;4959163;28;20671;-68
2022/02/10 16:30:36;;;;;;;17.52;5.28;;;;;;;8.68;73.63;97182.38;4973711;28;20099;-64
2022/02/10 16:33:03;;;;;;;13.23;5.40;;;;;;;8.56;74.46;97185.09;4974113;28;20066;-69
2022/02/10 16:35:29;;;;;;;13.95;4.53;;;;;;;8.46;75.78;97178.13;4973081;28;20129;-65
2022/02/10 16:37:55;;;;;;;14.65;4.38;;;;;;;8.39;75.63;97175.97;4981359;28;20137;-65
2022/02/10 16:40:22;;;;;;;12.40;4.93;;;;;;;8.37;76.39;97180.16;4978940;28;20105;-64
2022/02/10 16:42:48;;;;;;;12.45;5.22;;;;;;;8.24;77.27;97182.06;4975692;28;20522;-64
2022/02/10 16:45:14;;;;;;;13.50;5.47;;;;;;;8.09;77.99;97182.75;4970058;28;20061;-65
2022/02/10 16:47:40;;;;;;;14.43;4.97;;;;;;;8.06;77.92;97178.75;4976292;28;20042;-63
2022/02/10 16:50:05;;;;;;;10.32;4.93;;;;;;;7.98;78.75;97179.66;4979015;28;20053;-66
2022/02/10 16:52:37;;;;;;;13.30;5.03;;;;;;;7.93;79.15;97185.34;4990500;28;20047;-66
2022/02/10 17:01:03;;;;;;;10.32;5.88;;;;;;;7.75;80.72;97188.22;4974061;28;20138;-65
2022/02/10 17:20:00;;;;;;;12.85;4.80;;;;;;;7.36;83.95;97187.59;4974216;28;20113;-64
2022/02/10 17:25:14;;;;;;;15.07;6.82;;;;;;;7.42;83.66;97196.41;4933924;28;20122;-63
2022/02/10 17:27:43;;;;;;;14.35;6.72;;;;;;;7.41;83.57;97198.31;4980187;28;20053;-64
2022/02/10 17:44:07;;;;;;;14.13;5.95;;;;;;;7.10;86.54;97219.72;4909138;29;20154;-66
2022/02/10 17:52:06;;;;;;;11.43;5.95;;;;;;;6.88;89.38;97219.69;4974778;28;20556;-64
2022/02/10 17:54:31;;;;;;;17.40;6.65;;;;;;;6.85;89.26;97220.34;4967584;28;20112;-66
2022/02/10 17:56:57;;;;;;;16.38;6.97;;;;;;;6.72;90.36;97234.19;4994244;28;20049;-66
2022/02/10 17:59:23;;;;;;;15.05;6.30;;;;;;;6.75;89.97;97236.25;4977870;28;20065;-66
2022/02/10 18:01:49;;;;;;;16.08;6.07;;;;;;;6.55;91.33;97246.75;4989024;28;20042;-64
2022/02/10 18:04:17;;;;;;;18.40;6.47;;;;;;;6.51;91.66;97241.16;4994717;28;20080;-63
2022/02/10 18:06:46;;;;;;;14.18;6.40;;;;;;;6.56;92.24;97248.34;5000836;28;20038;-65
2022/02/10 18:14:33;;;;;;;14.50;6.45;;;;;;;6.53;93.04;97250.94;4994223;28;20653;-63
2022/02/10 18:17:08;;;;;;;13.63;7.60;;;;;;;6.49;92.82;97256.22;5000536;28;20042;-66
2022/02/10 18:19:41;;;;;;;15.38;7.30;;;;;;;6.44;93.29;97248.25;4999650;28;20046;-66
2022/02/10 18:22:28;;;;;;;16.40;6.28;;;;;;;6.32;94.36;97262.53;4988555;28;20038;-69
2022/02/10 18:28:01;;;;;;;17.67;6.47;;;;;;;6.34;93.75;97263.00;4988004;28;20183;-65
2022/02/10 18:30:22;;;;;;;15.60;7.53;;;;;;;6.37;93.36;97267.78;4990585;28;20060;-67
2022/02/10 19:05:43;;;;;;;17.35;7.80;;;;;;;6.32;94.48;97284.31;4979100;28;20423;-65
2022/02/10 19:08:20;;;;;;;14.00;7.35;;;;;;;6.28;96.22;97280.63;4996548;28;20408;-66
2022/02/10 19:10:48;;;;;;;16.58;7.72;;;;;;;6.16;96.29;97275.03;5002017;28;20507;-65
2022/02/10 19:13:17;;;;;;;15.80;6.90;;;;;;;6.10;96.24;97275.25;4996637;28;20138;-69
2022/02/10 19:15:43;;;;;;;24.90;7.80;;;;;;;5.96;96.88;97279.25;4981166;28;20095;-67
2022/02/10 19:18:09;;;;;;;16.20;7.47;;;;;;;5.92;97.69;97276.34;5006601;28;20128;-66
2022/02/10 19:20:37;;;;;;;17.10;7.03;;;;;;;6.07;96.29;97277.81;4984047;28;20453;-66
2022/02/10 19:23:04;;;;;;;15.57;6.68;;;;;;;5.99;96.25;97281.31;4998268;28;20503;-70
2022/02/10 19:25:36;;;;;;;20.42;6.60;;;;;;;5.85;96.91;97285.00;5002179;28;20042;-65
2022/02/10 19:28:03;;;;;;;21.30;6.78;;;;;;;5.74;97.28;97279.09;5005253;28;20046;-65
2022/02/10 19:30:31;;;;;;;18.75;6.75;;;;;;;5.90;96.13;97273.13;4998621;28;20034;-68
2022/02/10 19:32:59;;;;;;;17.55;8.60;;;;;;;5.80;96.52;97270.75;4997409;28;20545;-66
2022/02/10 19:35:27;;;;;;;20.27;7.68;;;;;;;5.81;96.71;97275.06;5013628;28;20076;-69
2022/02/10 19:38:00;;;;;;;20.63;6.38;;;;;;;5.88;96.74;97278.91;4994355;28;20491;-66
2022/02/10 19:40:28;;;;;;;13.35;5.80;;;;;;;5.83;96.61;97265.47;4997515;28;20050;-66
2022/02/10 19:42:55;;;;;;;17.63;6.45;;;;;;;5.87;96.54;97273.78;5003591;28;20093;-66
2022/02/10 19:45:20;;;;;;;11.85;6.50;;;;;;;5.99;95.56;97273.16;5000098;28;20037;-70
2022/02/10 19:47:46;;;;;;;18.38;6.45;;;;;;;6.12;94.15;97264.00;4994592;28;20077;-65
2022/02/10 19:50:15;;;;;;;21.30;6.75;;;;;;;6.22;94.22;97262.88;4994734;28;20046;-68
2022/02/10 19:52:48;;;;;;;17.13;6.70;;;;;;;6.26;93.90;97258.38;5000793;28;20042;-68
2022/02/10 19:55:19;;;;;;;13.55;7.00;;;;;;;6.24;93.82;97263.34;4998970;28;20042;-69
2022/02/10 19:57:46;;;;;;;15.63;6.50;;;;;;;6.17;94.00;97252.97;5001530;28;20065;-65
2022/02/10 20:00:18;;;;;;;15.93;6.80;;;;;;;6.08;94.48;97254.91;4981310;28;20042;-65
2022/02/10 20:02:44;;;;;;;26.70;10.23;;;;;;;6.08;94.25;97258.41;4968153;28;20050;-68
2022/02/10 20:05:10;;;;;;;15.68;6.65;;;;;;;5.99;94.70;97246.75;4960311;28;20481;-67
2022/02/10 20:07:41;;;;;;;21.77;6.53;;;;;;;5.87;95.36;97247.41;4990352;28;20141;-67
2022/02/10 20:10:08;;;;;;;17.98;6.30;;;;;;;5.81;95.59;97243.25;4996341;28;20198;-66
2022/02/10 20:12:34;;;;;;;15.05;5.65;;;;;;;5.75;95.56;97241.81;4996048;28;20068;-67
2022/02/10 20:15:00;;;;;;;15.45;6.15;;;;;;;5.80;95.60;97229.97;4998062;28;20050;-67
2022/02/10 20:17:25;;;;;;;15.85;6.85;;;;;;;5.84;94.11;97237.16;4998870;28;20484;-70
2022/02/10 20:19:50;;;;;;;16.88;6.53;;;;;;;5.94;93.27;97241.47;5003745;28;20061;-66
2022/02/10 20:22:16;;;;;;;21.02;6.95;;;;;;;5.98;92.92;97238.94;4998727;28;20041;-68
2022/02/10 20:24:42;;;;;;;15.82;5.55;;;;;;;6.11;91.33;97244.19;5004777;28;20037;-67
2022/02/10 20:27:07;;;;;;;14.98;6.55;;;;;;;6.26;90.27;97240.13;5006169;28;20052;-66
2022/02/10 20:29:33;;;;;;;16.13;5.80;;;;;;;6.34;89.83;97233.09;4976746;28;20148;-66
2022/02/10 20:31:59;;;;;;;19.10;6.40;;;;;;;6.38;89.89;97227.78;4994467;28;20046;-66
2022/02/10 20:34:26;;;;;;;15.50;5.72;;;;;;;6.25;90.16;97226.88;4976408;28;20760;-68
2022/02/10 20:36:51;;;;;;;16.92;6.30;;;;;;;6.17;90.72;97233.13;4985129;28;20064;-69
2022/02/10 20:39:24;;;;;;;11.63;5.43;;;;;;;6.15;90.89;97229.94;4970371;28;20496;-66
2022/02/10 20:41:52;;;;;;;13.02;6.20;;;;;;;6.23;90.91;97224.47;4994418;28;20042;-67
2022/02/10 20:44:19;;;;;;;12.88;5.80;;;;;;;6.22;90.51;97222.06;4998340;28;20044;-68
2022/02/10 20:46:49;;;;;;;13.50;6.20;;;;;;;6.01;91.73;97217.31;5015317;28;20050;-67
2022/02/10 20:49:16;;;;;;;45.33;18.40;;;;;;;5.89;93.12;97220.69;5006815;28;20458;-68
2022/02/10 20:51:47;;;;;;;28.13;10.48;;;;;;;5.89;92.75;97217.19;4998345;28;20046;-68
2022/02/10 20:54:13;;;;;;;16.08;7.63;;;;;;;5.89;92.93;97225.34;4986324;28;20137;-69
2022/02/10 20:56:40;;;;;;;10.45;5.50;;;;;;;5.93;92.70;97208.03;4969993;28;20073;-67
2022/02/10 20:59:22;;;;;;;10.82;6.32;;;;;;;5.96;92.37;97205.81;4994318;28;20057;-69
2022/02/10 21:01:58;;;;;;;16.40;6.30;;;;;;;5.90;92.46;97202.44;5003717;28;20042;-69
2022/02/10 21:04:28;;;;;;;19.38;6.50;;;;;;;5.82;93.68;97206.00;4997588;28;20045;-68
2022/02/10 21:07:00;;;;;;;12.45;5.95;;;;;;;5.79;94.10;97199.28;4986729;28;20053;-68
2022/02/10 21:09:38;;;;;;;16.48;7.97;;;;;;;5.57;95.86;97208.44;4995000;28;20145;-68
2022/02/10 21:12:07;;;;;;;25.10;10.50;;;;;;;5.44;97.31;97199.34;4996402;28;20557;-62
2022/02/10 21:14:32;;;;;;;19.83;9.80;;;;;;;5.39;98.67;97201.41;5001960;28;20065;-67
2022/02/10 21:17:05;;;;;;;24.20;10.32;;;;;;;5.33;99.24;97203.47;4999991;28;20507;-69
2022/02/10 21:19:30;;;;;;;21.30;9.75;;;;;;;5.47;99.23;97192.44;5001778;28;20038;-69
2022/02/10 21:21:56;;;;;;;22.63;9.45;;;;;;;5.49;98.49;97196.47;4995498;28;20629;-67
2022/02/10 21:24:27;;;;;;;22.80;9.80;;;;;;;5.57;97.80;97192.13;4996449;28;20520;-68
2022/02/10 21:29:39;;;;;;;21.90;9.90;;;;;;;5.45;98.29;97173.75;4969446;28;20073;-68
2022/02/10 21:32:05;;;;;;;32.25;11.23;;;;;;;5.48;98.24;97167.69;4989705;28;20143;-66
2022/02/10 21:34:35;;;;;;;28.85;12.52;;;;;;;5.52;97.94;97168.63;4976317;28;20050;-67
2022/02/10 21:37:07;;;;;;;25.25;10.70;;;;;;;5.65;97.37;97168.78;4976745;28;20053;-68
2022/02/10 21:55:45;;;;;;;22.98;9.30;;;;;;;5.69;96.75;97148.78;4986791;28;20046;-66
2022/02/10 22:11:12;;;;;;;16.30;8.05;;;;;;;5.05;100.00;97146.00;4973184;28;20038;-68
2022/02/10 22:18:58;;;;;;;15.77;8.25;;;;;;;5.03;100.00;97134.66;4981118;28;20056;-65
2022/02/10 22:21:29;;;;;;;18.38;8.82;;;;;;;5.07;100.00;97143.75;4985249;28;20513;-67
2022/02/10 22:23:54;;;;;;;20.13;8.85;;;;;;;5.13;100.00;97148.72;4972510;28;20499;-67
2022/02/10 22:26:24;;;;;;;23.17;9.35;;;;;;;5.17;100.00;97146.16;4983133;28;20046;-66
2022/02/10 22:29:00;;;;;;;26.02;10.13;;;;;;;5.21;100.00;97144.38;4972880;28;20057;-68
2022/02/10 22:36:28;;;;;;;25.42;10.32;;;;;;;5.34;100.00;97129.81;4967911;28;20051;-67
2022/02/10 22:38:59;;;;;;;32.95;10.85;;;;;;;5.70;100.00;97131.34;4972728;28;20043;-69
2022/02/10 22:41:25;;;;;;;23.90;9.70;;;;;;;5.69;100.00;97129.75;4972115;28;20057;-69
2022/02/10 22:43:51;;;;;;;20.50;9.40;;;;;;;5.68;100.00;97138.25;4987801;28;20043;-68
2022/02/10 22:46:19;;;;;;;20.75;9.75;;;;;;;5.67;100.00;97142.06;4956626;28;20047;-66
2022/02/10 22:48:46;;;;;;;19.90;9.73;;;;;;;5.63;100.00;97133.75;4967152;28;20598;-67
2022/02/10 22:51:14;;;;;;;19.48;9.52;;;;;;;5.57;100.00;97132.34;4970118;28;20046;-69
2022/02/10 22:53:39;;;;;;;20.05;9.43;;;;;;;5.52;100.00;97135.22;4981032;28;20102;-69
2022/02/10 22:56:10;;;;;;;15.95;9.77;;;;;;;5.51;100.00;97141.78;4973650;28;20058;-67
2022/02/10 22:58:38;;;;;;;22.55;8.95;;;;;;;5.63;100.00;97127.53;4992376;28;20066;-64
2022/02/10 23:01:06;;;;;;;28.40;10.02;;;;;;;5.92;100.00;97132.25;4997868;28;20487;-64
2022/02/10 23:03:36;;;;;;;22.40;10.68;;;;;;;5.97;100.00;97126.66;5006814;28;20148;-67
2022/02/10 23:06:03;;;;;;;25.50;12.15;;;;;;;5.89;100.00;97125.53;5004586;28;20045;-66
2022/02/10 23:08:29;;;;;;;24.38;11.50;;;;;;;5.73;100.00;97138.84;5001463;28;20038;-67
2022/02/10 23:10:54;;;;;;;21.33;10.30;;;;;;;5.75;100.00;97144.75;4996335;28;20067;-69
2022/02/10 23:13:25;;;;;;;19.50;8.85;;;;;;;5.83;100.00;97142.34;4998177;28;20037;-68
2022/02/10 23:15:51;;;;;;;17.17;8.55;;;;;;;5.85;100.00;97149.06;5019401;28;20050;-68
2022/02/10 23:18:22;;;;;;;17.17;8.77;;;;;;;5.89;100.00;97147.28;5000133;28;20072;-68
2022/02/10 23:20:48;;;;;;;22.20;8.30;;;;;;;5.85;100.00;97138.19;5004872;28;20108;-66
2022/02/10 23:23:15;;;;;;;22.20;9.57;;;;;;;5.95;100.00;97123.44;4994344;28;20054;-68
2022/02/10 23:25:43;;;;;;;23.58;11.55;;;;;;;5.67;100.00;97114.88;4996229;28;20038;-67
2022/02/10 23:28:15;;;;;;;24.95;9.95;;;;;;;5.35;100.00;97119.78;5000906;28;20104;-68
2022/02/10 23:30:45;;;;;;;17.50;10.50;;;;;;;5.06;100.00;97115.00;5022343;28;20042;-67
2022/02/10 23:38:34;;;;;;;24.17;11.82;;;;;;;4.65;100.00;97097.28;4991655;28;20054;-65
2022/02/10 23:43:25;;;;;;;25.45;11.48;;;;;;;4.60;100.00;97101.72;4996675;28;20041;-68
2022/02/10 23:45:51;;;;;;;21.58;11.23;;;;;;;4.75;100.00;97105.09;5003951;28;20124;-68
2022/02/10 23:48:18;;;;;;;25.08;11.50;;;;;;;4.84;100.00;97099.69;4999423;28;20046;-68
2022/02/10 23:50:43;;;;;;;23.10;10.77;;;;;;;4.91;100.00;97095.34;5003686;28;20038;-68
2022/02/10 23:53:08;;;;;;;25.35;11.90;;;;;;;4.91;100.00;97081.78;4991685;28;20526;-65
2022/02/10 23:55:37;;;;;;;26.50;12.30;;;;;;;4.62;100.00;97065.34;5013108;28;20053;-68
